Time;durP1;ratioP1;P1;durP2;ratioP2;P2;SDS_P1;SDS_P2;PMS_P1;PMS_P2;Temp;Humidity;BMP_temperature;BMP_pressure;BME280_temperature;BME280_humidity;BME280_pressure;Samples;Min_cycle;Max_cycle;Signal;HPM_P1;HPM_P2
2022/08/18 00:00:28;;;;;;;;;;;;;;;;;;5036530;28;19917;-94
2022/08/18 00:02:54;;;;;;;;;;;;;;;;;;5035718;28;19917;-92
2022/08/18 00:05:20;;;;;;;;;;;;;;;;;;5030922;28;19921;-92
2022/08/18 00:07:45;;;;;;;;;;;;;;;;;;5029511;28;19917;-92
2022/08/18 00:10:11;;;;;;;;;;;;;;;;;;5035227;28;19921;-93
2022/08/18 00:12:42;;;;;;;;;;;;;;;;;;5036122;28;19917;-91
2022/08/18 00:15:10;;;;;;;;;;;;;;;;;;5035011;28;20323;-92
2022/08/18 00:17:36;;;;;;;;;;;;;;;;;;5034401;28;19929;-90
2022/08/18 00:20:04;;;;;;;;;;;;;;;;;;5044155;28;20000;-92
2022/08/18 00:22:29;;;;;;;;;;;;;;;;;;5046748;28;19921;-91
2022/08/18 00:24:56;;;;;;;;;;;;;;;;;;5038530;28;19923;-93
2022/08/18 00:27:26;;;;;;;;;;;;;;;;;;5025417;28;20372;-90
2022/08/18 00:29:52;;;;;;;;;;;;;;;;;;5019384;28;19936;-91
2022/08/18 00:32:29;;;;;;;;;;;;;;;;;;5015082;28;20292;-92
2022/08/18 00:34:55;;;;;;;;;;;;;;;;;;5014925;28;19944;-90
2022/08/18 00:37:21;;;;;;;;;;;;;;;;;;5014698;28;19913;-90
2022/08/18 00:39:46;;;;;;;;;;;;;;;;;;5032090;28;19924;-91
2022/08/18 00:42:13;;;;;;;;;;;;;;;;;;5035415;28;20430;-91
2022/08/18 00:44:38;;;;;;;;;;;;;;;;;;5036150;28;19966;-91
2022/08/18 00:47:03;;;;;;;;;;;;;;;;;;5036661;28;20011;-90
2022/08/18 00:49:29;;;;;;;;;;;;;;;;;;5025264;28;20014;-91
2022/08/18 00:51:55;;;;;;;;;;;;;;;;;;5016416;28;19984;-90
2022/08/18 00:54:24;;;;;;;;;;;;;;;;;;5027035;28;19917;-92
2022/08/18 00:56:51;;;;;;;;;;;;;;;;;;5035513;28;19917;-92
2022/08/18 00:59:23;;;;;;;;;;;;;;;;;;5035001;28;20003;-90
2022/08/18 01:01:50;;;;;;;;;;;;;;;;;;5035211;28;19984;-93
2022/08/18 01:04:26;;;;;;;;;;;;;;;;;;5035231;28;19925;-91
2022/08/18 01:07:00;;;;;;;;;;;;;;;;;;5033901;28;19921;-92
2022/08/18 01:09:26;;;;;;;;;;;;;;;;;;5033929;28;19924;-91
2022/08/18 01:11:51;;;;;;;;;;;;;;;;;;5033763;28;20289;-92
2022/08/18 01:14:17;;;;;;;;;;;;;;;;;;5034940;28;19917;-90
2022/08/18 01:22:31;;;;;;;;;;;;;;;;;;5015391;28;19924;-90
2022/08/18 01:27:42;;;;;;;;;;;;;;;;;;5034893;28;19924;-92
2022/08/18 01:30:10;;;;;;;;;;;;;;;;;;5033337;28;19917;-90
2022/08/18 01:32:36;;;;;;;;;;;;;;;;;;5034523;28;19921;-91
2022/08/18 01:35:03;;;;;;;;;;;;;;;;;;5033469;28;20280;-91
2022/08/18 01:37:28;;;;;;;;;;;;;;;;;;5032811;28;19921;-91
2022/08/18 01:39:54;;;;;;;;;;;;;;;;;;5033405;28;19967;-92
2022/08/18 01:42:20;;;;;;;;;;;;;;;;;;5033176;28;19924;-91
2022/08/18 01:44:46;;;;;;;;;;;;;;;;;;5033420;28;19917;-91
2022/08/18 01:47:12;;;;;;;;;;;;;;;;;;5033165;28;19928;-91
2022/08/18 01:49:38;;;;;;;;;;;;;;;;;;5033097;28;20373;-92
2022/08/18 01:52:05;;;;;;;;;;;;;;;;;;5033084;28;19917;-91
2022/08/18 01:54:31;;;;;;;;;;;;;;;;;;5034311;28;19917;-92
2022/08/18 01:56:56;;;;;;;;;;;;;;;;;;5033102;28;19940;-91
2022/08/18 01:59:22;;;;;;;;;;;;;;;;;;5034049;28;20391;-91
2022/08/18 02:01:47;;;;;;;;;;;;;;;;;;5033018;28;20284;-91
2022/08/18 02:04:14;;;;;;;;;;;;;;;;;;5032867;28;19917;-93
2022/08/18 02:06:40;;;;;;;;;;;;;;;;;;5032993;28;19940;-91
2022/08/18 02:09:05;;;;;;;;;;;;;;;;;;5034186;28;20357;-92
2022/08/18 02:11:31;;;;;;;;;;;;;;;;;;5033481;28;19929;-90
2022/08/18 02:13:56;;;;;;;;;;;;;;;;;;5032806;28;20006;-91
2022/08/18 02:16:21;;;;;;;;;;;;;;;;;;5032774;28;20410;-91
2022/08/18 02:18:47;;;;;;;;;;;;;;;;;;5034263;28;19917;-92
2022/08/18 02:21:14;;;;;;;;;;;;;;;;;;5032735;28;20276;-91
2022/08/18 02:23:40;;;;;;;;;;;;;;;;;;5032673;28;19952;-91
2022/08/18 02:26:06;;;;;;;;;;;;;;;;;;5032538;28;19917;-91
2022/08/18 02:28:32;;;;;;;;;;;;;;;;;;5032590;28;20384;-90
2022/08/18 02:30:57;;;;;;;;;;;;;;;;;;5033657;28;19988;-91
2022/08/18 02:33:22;;;;;;;;;;;;;;;;;;5032738;28;19921;-91
2022/08/18 02:35:54;;;;;;;;;;;;;;;;;;5033900;28;19925;-91
2022/08/18 02:38:19;;;;;;;;;;;;;;;;;;5032249;28;19917;-92
2022/08/18 02:40:45;;;;;;;;;;;;;;;;;;5033787;28;19943;-90
2022/08/18 02:43:10;;;;;;;;;;;;;;;;;;5033894;28;19914;-90
2022/08/18 02:45:37;;;;;;;;;;;;;;;;;;5033729;28;19926;-91
2022/08/18 02:48:02;;;;;;;;;;;;;;;;;;5032527;28;19924;-92
2022/08/18 02:50:28;;;;;;;;;;;;;;;;;;5032589;28;19917;-90
2022/08/18 02:52:53;;;;;;;;;;;;;;;;;;5033818;28;19917;-90
2022/08/18 02:55:19;;;;;;;;;;;;;;;;;;5033723;28;19913;-91
2022/08/18 02:57:46;;;;;;;;;;;;;;;;;;5032328;28;19921;-90
2022/08/18 03:00:14;;;;;;;;;;;;;;;;;;5032292;28;20437;-91
2022/08/18 03:02:40;;;;;;;;;;;;;;;;;;5032341;28;20004;-92
2022/08/18 03:05:06;;;;;;;;;;;;;;;;;;5032248;28;19917;-92
2022/08/18 03:07:32;;;;;;;;;;;;;;;;;;5033669;28;19917;-91
2022/08/18 03:09:57;;;;;;;;;;;;;;;;;;5033456;28;19917;-92
2022/08/18 03:12:23;;;;;;;;;;;;;;;;;;5033508;28;19917;-92
2022/08/18 03:14:49;;;;;;;;;;;;;;;;;;5033432;28;20368;-91
2022/08/18 03:17:14;;;;;;;;;;;;;;;;;;5032135;28;19918;-90
2022/08/18 03:19:40;;;;;;;;;;;;;;;;;;5033483;28;20292;-91
2022/08/18 03:22:07;;;;;;;;;;;;;;;;;;5034366;28;20323;-91
2022/08/18 03:24:33;;;;;;;;;;;;;;;;;;5036791;28;19921;-91
2022/08/18 03:26:59;;;;;;;;;;;;;;;;;;5037357;28;19917;-91
2022/08/18 03:29:25;;;;;;;;;;;;;;;;;;5037349;28;20331;-91
2022/08/18 03:31:50;;;;;;;;;;;;;;;;;;5036910;28;19925;-91
2022/08/18 03:34:20;;;;;;;;;;;;;;;;;;5036852;28;19917;-91
2022/08/18 03:36:46;;;;;;;;;;;;;;;;;;5037137;28;19924;-92
2022/08/18 03:39:12;;;;;;;;;;;;;;;;;;5036866;28;19928;-91
2022/08/18 03:41:38;;;;;;;;;;;;;;;;;;5036988;28;19917;-92
2022/08/18 03:44:05;;;;;;;;;;;;;;;;;;5035568;28;19913;-91
2022/08/18 03:46:30;;;;;;;;;;;;;;;;;;5036649;28;20301;-92
2022/08/18 03:48:57;;;;;;;;;;;;;;;;;;5035423;28;19924;-92
2022/08/18 03:51:24;;;;;;;;;;;;;;;;;;5036584;28;19919;-92
2022/08/18 03:53:50;;;;;;;;;;;;;;;;;;5031079;28;19925;-93
2022/08/18 03:56:17;;;;;;;;;;;;;;;;;;5024872;28;20250;-91
2022/08/18 03:58:44;;;;;;;;;;;;;;;;;;5022387;28;19984;-90
2022/08/18 04:01:16;;;;;;;;;;;;;;;;;;5020609;28;19921;-92
2022/08/18 04:03:42;;;;;;;;;;;;;;;;;;5015373;28;19921;-92
2022/08/18 04:06:13;;;;;;;;;;;;;;;;;;5016839;28;19925;-92
2022/08/18 04:08:38;;;;;;;;;;;;;;;;;;5015473;28;19963;-91
2022/08/18 04:11:04;;;;;;;;;;;;;;;;;;5015348;28;20323;-93
2022/08/18 04:13:35;;;;;;;;;;;;;;;;;;5015541;28;20399;-91
2022/08/18 04:16:00;;;;;;;;;;;;;;;;;;5015138;28;19941;-92
2022/08/18 04:18:27;;;;;;;;;;;;;;;;;;5014886;28;20373;-90
2022/08/18 04:20:52;;;;;;;;;;;;;;;;;;5016563;28;19922;-91
2022/08/18 04:23:18;;;;;;;;;;;;;;;;;;5016350;28;19925;-92
2022/08/18 04:25:43;;;;;;;;;;;;;;;;;;5016230;28;19918;-91
2022/08/18 04:28:09;;;;;;;;;;;;;;;;;;5014828;28;20280;-91
2022/08/18 04:30:35;;;;;;;;;;;;;;;;;;5014871;28;19922;-91
2022/08/18 04:33:01;;;;;;;;;;;;;;;;;;5015776;28;19924;-92
2022/08/18 04:35:28;;;;;;;;;;;;;;;;;;5015937;28;20403;-92
2022/08/18 04:37:53;;;;;;;;;;;;;;;;;;5014887;28;20383;-91
2022/08/18 04:40:19;;;;;;;;;;;;;;;;;;5016726;28;19917;-93
2022/08/18 04:42:44;;;;;;;;;;;;;;;;;;5044130;28;20377;-90
2022/08/18 04:45:10;;;;;;;;;;;;;;;;;;5039871;28;19916;-91
2022/08/18 04:47:40;;;;;;;;;;;;;;;;;;5057611;28;19980;-91
2022/08/18 04:50:06;;;;;;;;;;;;;;;;;;5057061;28;19935;-91
2022/08/18 04:55:15;;;;;;;;;;;;;;;;;;5042771;28;19924;-90
2022/08/18 04:57:41;;;;;;;;;;;;;;;;;;5033629;28;20546;-90
2022/08/18 05:00:10;;;;;;;;;;;;;;;;;;5023301;28;19975;-91
2022/08/18 05:02:36;;;;;;;;;;;;;;;;;;5021669;28;20361;-90
2022/08/18 05:05:02;;;;;;;;;;;;;;;;;;5033108;28;19925;-93
2022/08/18 05:07:28;;;;;;;;;;;;;;;;;;5033893;28;19925;-91
2022/08/18 05:09:53;;;;;;;;;;;;;;;;;;5027452;28;20288;-91
2022/08/18 05:12:19;;;;;;;;;;;;;;;;;;5024587;28;20369;-89
2022/08/18 05:14:45;;;;;;;;;;;;;;;;;;5031373;28;20008;-92
2022/08/18 05:17:11;;;;;;;;;;;;;;;;;;5024505;28;19922;-91
2022/08/18 05:19:36;;;;;;;;;;;;;;;;;;5033740;28;19968;-89
2022/08/18 05:22:02;;;;;;;;;;;;;;;;;;5034825;28;19979;-92
2022/08/18 05:24:28;;;;;;;;;;;;;;;;;;5024824;28;19966;-91
2022/08/18 05:26:54;;;;;;;;;;;;;;;;;;5023004;28;19921;-90
2022/08/18 05:29:20;;;;;;;;;;;;;;;;;;5031561;28;19924;-90
2022/08/18 05:31:47;;;;;;;;;;;;;;;;;;5033237;28;19921;-91
2022/08/18 05:34:12;;;;;;;;;;;;;;;;;;5028792;28;19972;-91
2022/08/18 05:36:50;;;;;;;;;;;;;;;;;;5015073;28;20388;-93
2022/08/18 05:39:25;;;;;;;;;;;;;;;;;;5014937;28;19964;-92
2022/08/18 05:41:52;;;;;;;;;;;;;;;;;;5018828;28;19924;-91
2022/08/18 05:44:20;;;;;;;;;;;;;;;;;;5034490;28;20295;-91
2022/08/18 05:46:49;;;;;;;;;;;;;;;;;;5033517;28;20261;-92
2022/08/18 05:49:15;;;;;;;;;;;;;;;;;;5034569;28;19919;-92
2022/08/18 05:51:45;;;;;;;;;;;;;;;;;;5034485;28;20434;-91
2022/08/18 05:56:58;;;;;;;;;;;;;;;;;;5034415;28;20335;-91
2022/08/18 05:59:31;;;;;;;;;;;;;;;;;;5034172;28;19917;-90
2022/08/18 06:02:15;;;;;;;;;;;;;;;;;;5032978;28;19917;-91
2022/08/18 06:04:41;;;;;;;;;;;;;;;;;;5034400;28;20016;-92
2022/08/18 06:07:08;;;;;;;;;;;;;;;;;;5032912;28;20356;-91
2022/08/18 06:09:36;;;;;;;;;;;;;;;;;;5034310;28;20368;-90
2022/08/18 06:12:22;;;;;;;;;;;;;;;;;;5032859;28;19921;-93
2022/08/18 06:14:49;;;;;;;;;;;;;;;;;;5034237;28;20299;-92
2022/08/18 06:17:17;;;;;;;;;;;;;;;;;;5032601;28;19987;-92
2022/08/18 06:19:48;;;;;;;;;;;;;;;;;;5032778;28;20384;-93
2022/08/18 06:22:23;;;;;;;;;;;;;;;;;;5034246;28;19932;-92
2022/08/18 06:25:06;;;;;;;;;;;;;;;;;;5033144;28;19917;-92
2022/08/18 06:27:39;;;;;;;;;;;;;;;;;;5034337;28;19921;-93
2022/08/18 06:30:18;;;;;;;;;;;;;;;;;;5033057;28;20000;-92
2022/08/18 06:32:52;;;;;;;;;;;;;;;;;;5031631;28;20008;-93
2022/08/18 06:35:18;;;;;;;;;;;;;;;;;;5019340;28;19987;-92
2022/08/18 06:40:27;;;;;;;;;;;;;;;;;;5020080;28;19932;-93
2022/08/18 06:42:53;;;;;;;;;;;;;;;;;;5023243;28;19921;-92
2022/08/18 06:45:21;;;;;;;;;;;;;;;;;;5023740;28;20000;-93
2022/08/18 06:48:04;;;;;;;;;;;;;;;;;;5029036;28;19925;-93
2022/08/18 06:50:41;;;;;;;;;;;;;;;;;;5020381;28;19925;-93
2022/08/18 06:53:07;;;;;;;;;;;;;;;;;;5027107;28;19922;-92
2022/08/18 06:58:14;;;;;;;;;;;;;;;;;;5055333;27;2578554;-94
2022/08/18 07:00:49;;;;;;;;;;;;;;;;;;5147709;27;21581;-94
2022/08/18 07:03:23;;;;;;;;;;;;;;;;;;5126526;27;19923;-91
2022/08/18 07:05:58;;;;;;;;;;;;;;;;;;5144751;27;19931;-93
2022/08/18 07:08:35;;;;;;;;;;;;;;;;;;5144460;27;19923;-93
2022/08/18 07:11:19;;;;;;;;;;;;;;;;;;5130159;27;20564;-93
2022/08/18 07:13:45;;;;;;;;;;;;;;;;;;5119143;27;19927;-93
2022/08/18 07:16:16;;;;;;;;;;;;;;;;;;5139541;27;19996;-94
2022/08/18 07:18:42;;;;;;;;;;;;;;;;;;5142881;27;19927;-93
2022/08/18 07:21:08;;;;;;;;;;;;;;;;;;5125401;27;19916;-94
2022/08/18 07:23:37;;;;;;;;;;;;;;;;;;5145912;27;19919;-93
2022/08/18 07:26:14;;;;;;;;;;;;;;;;;;5150359;27;19927;-94
2022/08/18 07:28:44;;;;;;;;;;;;;;;;;;5146490;27;20286;-94
2022/08/18 07:31:16;;;;;;;;;;;;;;;;;;5145895;27;19919;-95
2022/08/18 07:33:45;;;;;;;;;;;;;;;;;;5124941;27;20374;-93
2022/08/18 07:36:12;;;;;;;;;;;;;;;;;;5143924;27;20405;-92
2022/08/18 07:38:47;;;;;;;;;;;;;;;;;;5122906;28;20065;-95
2022/08/18 07:41:13;;;;;;;;;;;;;;;;;;5136802;27;19923;-93
2022/08/18 07:43:38;;;;;;;;;;;;;;;;;;5133359;27;19915;-92
2022/08/18 07:46:17;;;;;;;;;;;;;;;;;;5149480;27;20385;-94
2022/08/18 07:48:43;;;;;;;;;;;;;;;;;;5126377;27;19964;-93
2022/08/18 07:51:12;;;;;;;;;;;;;;;;;;5133494;27;19916;-94
2022/08/18 07:53:46;;;;;;;;;;;;;;;;;;5128114;27;19923;-92
2022/08/18 07:56:36;;;;;;;;;;;;;;;;;;5123027;27;19919;-94
2022/08/18 07:59:11;;;;;;;;;;;;;;;;;;5095135;27;19924;-94
2022/08/18 08:01:42;;;;;;;;;;;;;;;;;;5121523;27;19930;-92
2022/08/18 08:04:34;;;;;;;;;;;;;;;;;;5144105;27;19989;-94
2022/08/18 08:07:03;;;;;;;;;;;;;;;;;;5136993;27;19919;-92
2022/08/18 08:09:52;;;;;;;;;;;;;;;;;;5113094;27;19920;-93
2022/08/18 08:12:33;;;;;;;;;;;;;;;;;;5117882;27;20008;-92
2022/08/18 08:15:16;;;;;;;;;;;;;;;;;;5103203;27;19923;-93
2022/08/18 08:17:46;;;;;;;;;;;;;;;;;;5114708;27;19942;-93
2022/08/18 08:20:24;;;;;;;;;;;;;;;;;;5123441;27;20010;-94
2022/08/18 08:23:16;;;;;;;;;;;;;;;;;;5106750;27;19995;-93
2022/08/18 08:25:51;;;;;;;;;;;;;;;;;;5132468;27;19981;-93
2022/08/18 08:28:27;;;;;;;;;;;;;;;;;;5107144;27;19920;-94
2022/08/18 08:31:03;;;;;;;;;;;;;;;;;;5110301;27;19925;-93
2022/08/18 08:33:44;;;;;;;;;;;;;;;;;;5113757;27;19940;-93
2022/08/18 08:36:16;;;;;;;;;;;;;;;;;;5109787;27;19947;-93
2022/08/18 08:38:42;;;;;;;;;;;;;;;;;;5136127;27;19916;-92
2022/08/18 08:41:27;;;;;;;;;;;;;;;;;;5110135;27;19930;-91
2022/08/18 08:44:02;;;;;;;;;;;;;;;;;;5098962;27;20370;-91
2022/08/18 08:46:29;;;;;;;;;;;;;;;;;;5135166;27;19992;-92
2022/08/18 08:49:04;;;;;;;;;;;;;;;;;;5132948;27;19971;-91
2022/08/18 08:51:45;;;;;;;;;;;;;;;;;;5114490;27;19920;-91
2022/08/18 08:54:15;;;;;;;;;;;;;;;;;;5118339;27;19947;-91
2022/08/18 08:56:46;;;;;;;;;;;;;;;;;;5136683;27;19919;-91
2022/08/18 08:59:13;;;;;;;;;;;;;;;;;;5115746;27;19915;-92
2022/08/18 09:01:48;;;;;;;;;;;;;;;;;;5128438;27;19920;-92
2022/08/18 09:04:16;;;;;;;;;;;;;;;;;;5115571;27;19919;-91
2022/08/18 09:06:41;;;;;;;;;;;;;;;;;;5127604;27;19938;-91
2022/08/18 09:09:13;;;;;;;;;;;;;;;;;;5114876;27;19923;-92
2022/08/18 09:11:48;;;;;;;;;;;;;;;;;;5131008;27;19915;-92
2022/08/18 09:14:16;;;;;;;;;;;;;;;;;;5098726;28;20060;-91
2022/08/18 09:17:22;;;;;;;;;;;;;;;;;;5097722;28;19951;-92
2022/08/18 09:19:48;;;;;;;;;;;;;;;;;;5052068;28;19920;-92
2022/08/18 09:22:22;;;;;;;;;;;;;;;;;;5063177;22;20357;-92
2022/08/18 09:24:50;;;;;;;;;;;;;;;;;;5043790;28;19916;-92
2022/08/18 09:27:21;;;;;;;;;;;;;;;;;;5055424;28;19917;-92
2022/08/18 09:29:56;;;;;;;;;;;;;;;;;;5054901;28;19936;-92
2022/08/18 09:32:21;;;;;;;;;;;;;;;;;;5054338;28;19924;-90
2022/08/18 09:34:47;;;;;;;;;;;;;;;;;;5046169;28;20291;-93
2022/08/18 09:37:16;;;;;;;;;;;;;;;;;;5035674;28;19921;-93
2022/08/18 09:42:35;;;;;;;;;;;;;;;;;;5046998;28;20461;-92
2022/08/18 09:45:04;;;;;;;;;;;;;;;;;;5046918;28;20029;-93
2022/08/18 09:47:33;;;;;;;;;;;;;;;;;;5035168;28;19952;-91
2022/08/18 09:50:04;;;;;;;;;;;;;;;;;;5034757;28;19923;-92
2022/08/18 09:52:33;;;;;;;;;;;;;;;;;;5043681;28;19917;-93
2022/08/18 09:54:58;;;;;;;;;;;;;;;;;;5029156;28;20019;-92
2022/08/18 09:57:31;;;;;;;;;;;;;;;;;;5054339;28;20015;-92
2022/08/18 09:59:58;;;;;;;;;;;;;;;;;;5036269;28;20004;-91
2022/08/18 10:02:34;;;;;;;;;;;;;;;;;;5054461;28;19913;-94
2022/08/18 10:05:18;;;;;;;;;;;;;;;;;;5033387;28;19917;-92
2022/08/18 10:08:16;;;;;;;;;;;;;;;;;;5037409;28;19916;-91
2022/08/18 10:11:12;;;;;;;;;;;;;;;;;;5039315;28;19928;-94
2022/08/18 10:13:46;;;;;;;;;;;;;;;;;;5035253;28;19925;-94
2022/08/18 10:16:17;;;;;;;;;;;;;;;;;;5048513;28;20283;-94
2022/08/18 10:18:42;;;;;;;;;;;;;;;;;;5030977;28;20403;-93
2022/08/18 10:21:08;;;;;;;;;;;;;;;;;;5045595;28;19928;-95
2022/08/18 10:23:52;;;;;;;;;;;;;;;;;;5036951;28;19923;-92
2022/08/18 10:26:29;;;;;;;;;;;;;;;;;;5038587;28;19929;-92
2022/08/18 10:29:01;;;;;;;;;;;;;;;;;;5022349;28;19921;-92
2022/08/18 10:31:27;;;;;;;;;;;;;;;;;;5048421;28;20093;-92
2022/08/18 10:33:53;;;;;;;;;;;;;;;;;;5052397;28;19921;-92
2022/08/18 10:36:40;;;;;;;;;;;;;;;;;;5033855;28;20019;-92
2022/08/18 10:55:47;;;;;;;;;;;;;;;;;;5079739;28;19925;-91
2022/08/18 10:58:25;;;;;;;;;;;;;;;;;;5076160;28;19925;-92
2022/08/18 11:00:59;;;;;;;;;;;;;;;;;;5060628;28;20407;-90
2022/08/18 11:03:38;;;;;;;;;;;;;;;;;;5076888;28;19916;-93
2022/08/18 11:06:05;;;;;;;;;;;;;;;;;;5054015;28;19917;-92
2022/08/18 11:08:33;;;;;;;;;;;;;;;;;;5072848;28;20015;-92
2022/08/18 11:11:04;;;;;;;;;;;;;;;;;;5073238;28;19920;-94
2022/08/18 11:13:48;;;;;;;;;;;;;;;;;;5057443;28;19973;-91
2022/08/18 11:16:34;;;;;;;;;;;;;;;;;;5075108;28;19920;-91
2022/08/18 11:19:19;;;;;;;;;;;;;;;;;;5040074;28;19978;-91
2022/08/18 11:21:45;;;;;;;;;;;;;;;;;;5076665;28;20424;-92
2022/08/18 11:24:25;;;;;;;;;;;;;;;;;;5057257;28;20335;-93
2022/08/18 11:26:50;;;;;;;;;;;;;;;;;;5057441;28;19920;-94
2022/08/18 11:29:16;;;;;;;;;;;;;;;;;;5076962;28;19962;-92
2022/08/18 11:31:42;;;;;;;;;;;;;;;;;;5073556;28;19916;-93
2022/08/18 11:34:21;;;;;;;;;;;;;;;;;;5059904;28;19916;-93
2022/08/18 11:37:00;;;;;;;;;;;;;;;;;;5077961;28;19924;-92
2022/08/18 11:39:27;;;;;;;;;;;;;;;;;;5076902;28;19942;-93
2022/08/18 11:41:52;;;;;;;;;;;;;;;;;;5073616;28;19924;-92
2022/08/18 11:44:19;;;;;;;;;;;;;;;;;;5076584;28;19931;-92
2022/08/18 11:46:45;;;;;;;;;;;;;;;;;;5078298;28;19923;-93
2022/08/18 11:49:29;;;;;;;;;;;;;;;;;;5077967;28;20379;-92
2022/08/18 11:52:16;;;;;;;;;;;;;;;;;;5081398;28;20409;-91
2022/08/18 11:54:43;;;;;;;;;;;;;;;;;;5064162;28;19966;-93
2022/08/18 11:57:29;;;;;;;;;;;;;;;;;;5058903;28;19936;-91
2022/08/18 11:59:55;;;;;;;;;;;;;;;;;;5066346;28;19924;-93
2022/08/18 12:02:23;;;;;;;;;;;;;;;;;;5076075;28;19916;-90
2022/08/18 12:04:51;;;;;;;;;;;;;;;;;;5054213;28;20007;-92
2022/08/18 12:07:25;;;;;;;;;;;;;;;;;;5058697;28;19920;-91
2022/08/18 12:10:11;;;;;;;;;;;;;;;;;;5055003;28;19964;-92
2022/08/18 12:12:44;;;;;;;;;;;;;;;;;;5055110;28;20402;-92
2022/08/18 12:15:10;;;;;;;;;;;;;;;;;;5055139;28;19917;-93
2022/08/18 12:17:35;;;;;;;;;;;;;;;;;;5056200;28;19979;-93
2022/08/18 12:20:01;;;;;;;;;;;;;;;;;;5055048;28;19917;-91
2022/08/18 12:22:29;;;;;;;;;;;;;;;;;;5056054;28;19912;-92
2022/08/18 12:24:54;;;;;;;;;;;;;;;;;;5055015;28;19917;-92
2022/08/18 12:27:22;;;;;;;;;;;;;;;;;;5054851;28;20323;-92
2022/08/18 12:29:48;;;;;;;;;;;;;;;;;;5054837;28;19916;-92
2022/08/18 12:32:14;;;;;;;;;;;;;;;;;;5056887;28;19921;-91
2022/08/18 12:34:39;;;;;;;;;;;;;;;;;;5071507;28;20265;-92
2022/08/18 12:37:07;;;;;;;;;;;;;;;;;;5057186;28;20307;-92
2022/08/18 12:39:32;;;;;;;;;;;;;;;;;;5058316;28;19921;-91
2022/08/18 12:41:58;;;;;;;;;;;;;;;;;;5075852;28;19963;-92
2022/08/18 12:44:23;;;;;;;;;;;;;;;;;;5057198;28;19947;-92
2022/08/18 12:46:49;;;;;;;;;;;;;;;;;;5058235;28;19963;-92
2022/08/18 12:49:16;;;;;;;;;;;;;;;;;;5058174;28;19962;-92
2022/08/18 12:51:42;;;;;;;;;;;;;;;;;;5054967;28;19998;-92
2022/08/18 12:54:07;;;;;;;;;;;;;;;;;;5053826;28;19921;-93
2022/08/18 12:56:32;;;;;;;;;;;;;;;;;;5055933;28;19923;-94
2022/08/18 12:59:03;;;;;;;;;;;;;;;;;;5048967;28;19939;-93
2022/08/18 13:01:28;;;;;;;;;;;;;;;;;;5055596;28;19929;-93
2022/08/18 13:03:55;;;;;;;;;;;;;;;;;;5056817;28;19935;-93
2022/08/18 13:06:21;;;;;;;;;;;;;;;;;;5077163;28;19909;-93
2022/08/18 13:08:47;;;;;;;;;;;;;;;;;;5055776;28;19917;-93
2022/08/18 13:11:13;;;;;;;;;;;;;;;;;;5057448;28;20652;-91
2022/08/18 13:13:39;;;;;;;;;;;;;;;;;;5071443;28;19921;-91
2022/08/18 13:16:07;;;;;;;;;;;;;;;;;;5054337;28;19928;-93
2022/08/18 13:18:33;;;;;;;;;;;;;;;;;;5053005;28;19920;-93
2022/08/18 13:20:59;;;;;;;;;;;;;;;;;;5053497;28;19928;-93
2022/08/18 13:23:26;;;;;;;;;;;;;;;;;;5090513;28;19920;-93
2022/08/18 13:25:51;;;;;;;;;;;;;;;;;;5075324;28;19959;-92
2022/08/18 13:28:17;;;;;;;;;;;;;;;;;;5073802;28;19966;-93
2022/08/18 13:30:44;;;;;;;;;;;;;;;;;;5075230;28;19916;-94
2022/08/18 13:33:09;;;;;;;;;;;;;;;;;;5072687;28;19916;-92
2022/08/18 13:35:35;;;;;;;;;;;;;;;;;;5073437;28;19917;-92
2022/08/18 13:38:00;;;;;;;;;;;;;;;;;;5091871;28;19965;-90
2022/08/18 13:40:25;;;;;;;;;;;;;;;;;;5058952;28;20372;-91
2022/08/18 13:42:51;;;;;;;;;;;;;;;;;;5054958;28;20326;-92
2022/08/18 13:45:19;;;;;;;;;;;;;;;;;;5077815;28;19923;-92
2022/08/18 13:47:45;;;;;;;;;;;;;;;;;;5074676;28;20003;-93
2022/08/18 13:50:11;;;;;;;;;;;;;;;;;;5074581;28;19917;-92
2022/08/18 13:52:37;;;;;;;;;;;;;;;;;;5059637;28;19973;-92
2022/08/18 13:55:04;;;;;;;;;;;;;;;;;;5074423;28;19920;-91
2022/08/18 13:57:30;;;;;;;;;;;;;;;;;;5042122;28;20489;-93
2022/08/18 13:59:56;;;;;;;;;;;;;;;;;;5036163;28;19960;-90
2022/08/18 14:02:21;;;;;;;;;;;;;;;;;;5034603;28;19975;-93
2022/08/18 14:04:48;;;;;;;;;;;;;;;;;;5016922;28;20368;-91
2022/08/18 14:07:16;;;;;;;;;;;;;;;;;;5016151;28;19913;-91
2022/08/18 14:09:41;;;;;;;;;;;;;;;;;;5034271;28;20392;-89
2022/08/18 14:12:13;;;;;;;;;;;;;;;;;;5039531;28;19987;-92
2022/08/18 14:14:39;;;;;;;;;;;;;;;;;;5028988;28;19917;-91
2022/08/18 14:17:04;;;;;;;;;;;;;;;;;;5053852;28;19917;-92
2022/08/18 14:27:42;;;;;;;;;;;;;;;;;;5054093;28;19932;-93
2022/08/18 14:30:09;;;;;;;;;;;;;;;;;;5054367;28;19917;-94
2022/08/18 14:32:35;;;;;;;;;;;;;;;;;;5052740;28;19916;-93
2022/08/18 14:35:01;;;;;;;;;;;;;;;;;;5052899;28;19963;-92
2022/08/18 14:37:28;;;;;;;;;;;;;;;;;;5052312;28;20360;-92
2022/08/18 14:39:53;;;;;;;;;;;;;;;;;;5049222;28;19940;-93
2022/08/18 14:42:20;;;;;;;;;;;;;;;;;;5032416;28;19921;-93
2022/08/18 14:44:45;;;;;;;;;;;;;;;;;;5035591;28;20334;-91
2022/08/18 14:47:11;;;;;;;;;;;;;;;;;;5055619;28;19917;-93
2022/08/18 14:49:38;;;;;;;;;;;;;;;;;;5057995;28;19916;-92
2022/08/18 14:52:04;;;;;;;;;;;;;;;;;;5055863;28;20391;-93
2022/08/18 14:54:30;;;;;;;;;;;;;;;;;;5056367;28;19916;-94
2022/08/18 14:56:57;;;;;;;;;;;;;;;;;;5056139;28;19917;-94
2022/08/18 14:59:23;;;;;;;;;;;;;;;;;;5056456;28;19927;-94
2022/08/18 15:01:49;;;;;;;;;;;;;;;;;;5056150;28;20364;-94
2022/08/18 15:04:15;;;;;;;;;;;;;;;;;;5056629;28;19916;-92
2022/08/18 15:06:44;;;;;;;;;;;;;;;;;;5056718;28;19927;-93
2022/08/18 15:09:09;;;;;;;;;;;;;;;;;;5054292;28;19917;-93
2022/08/18 15:11:35;;;;;;;;;;;;;;;;;;5053860;28;20288;-94
2022/08/18 15:14:00;;;;;;;;;;;;;;;;;;5036129;28;19948;-93
2022/08/18 15:16:26;;;;;;;;;;;;;;;;;;5036368;28;19962;-93
2022/08/18 15:18:52;;;;;;;;;;;;;;;;;;5039076;28;19921;-93
2022/08/18 15:27:08;;;;;;;;;;;;;;;;;;5065259;28;19919;-95
2022/08/18 15:29:33;;;;;;;;;;;;;;;;;;5040277;28;20015;-94
2022/08/18 15:32:01;;;;;;;;;;;;;;;;;;5058460;28;20413;-91
2022/08/18 15:34:27;;;;;;;;;;;;;;;;;;5040708;28;19917;-93
2022/08/18 15:36:54;;;;;;;;;;;;;;;;;;5058362;28;20344;-94
2022/08/18 15:39:19;;;;;;;;;;;;;;;;;;5045636;28;19982;-93
2022/08/18 15:41:48;;;;;;;;;;;;;;;;;;5072760;28;19920;-92
2022/08/18 15:44:14;;;;;;;;;;;;;;;;;;5056908;28;19935;-92
2022/08/18 15:46:39;;;;;;;;;;;;;;;;;;5055759;28;19923;-94
2022/08/18 15:49:06;;;;;;;;;;;;;;;;;;5055641;28;20019;-93
2022/08/18 15:51:32;;;;;;;;;;;;;;;;;;5064312;28;19986;-93
2022/08/18 15:53:58;;;;;;;;;;;;;;;;;;5059724;28;19916;-93
2022/08/18 15:56:24;;;;;;;;;;;;;;;;;;5058724;28;19920;-93
2022/08/18 15:58:50;;;;;;;;;;;;;;;;;;5058353;28;19920;-94
2022/08/18 16:01:16;;;;;;;;;;;;;;;;;;5057433;28;19944;-93
2022/08/18 16:03:44;;;;;;;;;;;;;;;;;;5056873;28;19920;-93
2022/08/18 16:06:16;;;;;;;;;;;;;;;;;;5073946;28;19917;-94
2022/08/18 16:08:42;;;;;;;;;;;;;;;;;;5058723;28;19920;-93
2022/08/18 16:11:09;;;;;;;;;;;;;;;;;;5050563;28;19979;-95
2022/08/18 16:13:34;;;;;;;;;;;;;;;;;;5041859;28;19971;-95
2022/08/18 16:16:06;;;;;;;;;;;;;;;;;;5040394;28;19952;-94
2022/08/18 16:18:32;;;;;;;;;;;;;;;;;;5058278;28;19925;-95
2022/08/18 16:21:02;;;;;;;;;;;;;;;;;;5041491;28;19935;-93
2022/08/18 16:23:28;;;;;;;;;;;;;;;;;;5047493;28;19982;-92
2022/08/18 16:25:59;;;;;;;;;;;;;;;;;;5053673;28;19917;-93
2022/08/18 16:28:25;;;;;;;;;;;;;;;;;;5049884;28;19924;-92
2022/08/18 16:30:50;;;;;;;;;;;;;;;;;;5038315;28;19917;-93
2022/08/18 16:33:16;;;;;;;;;;;;;;;;;;5049467;28;19920;-93
2022/08/18 16:35:43;;;;;;;;;;;;;;;;;;5042128;28;20146;-92
2022/08/18 16:38:08;;;;;;;;;;;;;;;;;;5052097;28;20292;-91
2022/08/18 16:40:34;;;;;;;;;;;;;;;;;;5038745;28;19917;-93
2022/08/18 16:43:00;;;;;;;;;;;;;;;;;;5040067;28;19920;-93
2022/08/18 16:45:26;;;;;;;;;;;;;;;;;;5042119;28;19917;-94
2022/08/18 16:47:52;;;;;;;;;;;;;;;;;;5044127;28;20245;-92
2022/08/18 16:50:18;;;;;;;;;;;;;;;;;;5055056;28;19917;-93
2022/08/18 16:52:43;;;;;;;;;;;;;;;;;;5038022;28;20331;-94
2022/08/18 16:55:09;;;;;;;;;;;;;;;;;;5044962;28;19968;-95
2022/08/18 17:06:09;;;;;;;;;;;;;;;;;;5007243;28;19916;-94
2022/08/18 17:08:38;;;;;;;;;;;;;;;;;;5057245;28;20391;-95
2022/08/18 17:11:05;;;;;;;;;;;;;;;;;;5043045;28;19916;-94
2022/08/18 17:13:32;;;;;;;;;;;;;;;;;;5050267;28;20024;-93
2022/08/18 17:16:00;;;;;;;;;;;;;;;;;;5051301;28;19920;-94
2022/08/18 17:18:26;;;;;;;;;;;;;;;;;;5068860;28;19923;-92
2022/08/18 17:20:52;;;;;;;;;;;;;;;;;;5046078;28;21406;-93
2022/08/18 17:23:17;;;;;;;;;;;;;;;;;;5052585;28;19917;-94
2022/08/18 17:25:44;;;;;;;;;;;;;;;;;;5056064;28;20368;-94
2022/08/18 17:28:11;;;;;;;;;;;;;;;;;;5041480;28;19921;-91
2022/08/18 17:30:43;;;;;;;;;;;;;;;;;;5039945;28;19921;-94
2022/08/18 17:33:13;;;;;;;;;;;;;;;;;;5042673;28;20375;-94
2022/08/18 17:35:43;;;;;;;;;;;;;;;;;;5050934;28;19946;-93
2022/08/18 17:38:15;;;;;;;;;;;;;;;;;;5049790;28;19921;-92
2022/08/18 17:40:46;;;;;;;;;;;;;;;;;;5016088;28;19963;-92
2022/08/18 17:43:22;;;;;;;;;;;;;;;;;;5038675;28;20292;-92
2022/08/18 17:45:56;;;;;;;;;;;;;;;;;;5043003;28;19940;-93
2022/08/18 17:48:41;;;;;;;;;;;;;;;;;;5034955;28;19959;-95
2022/08/18 17:53:51;;;;;;;;;;;;;;;;;;5075506;28;20393;-93
2022/08/18 17:56:19;;;;;;;;;;;;;;;;;;5062448;28;19945;-93
2022/08/18 17:58:48;;;;;;;;;;;;;;;;;;5058432;28;19924;-93
2022/08/18 18:01:14;;;;;;;;;;;;;;;;;;5053761;28;20426;-93